EIN15C EIDW-EGLL
Flight info
| Callsign | EIN15C |
|---|---|
| Flight time | 0h 51m |
| Altitude | 35000 |
| Route | PESIT4E PESIT DCT BAKUR DCT ECCIT DCT GUBJE DCT GISOK DCT TACQI DCT FONZU DCT ELRIP DCT OTMET |
| Aircraft | A320/M-SDE3FGHIRWY/LB1 |
Departure
| Time | 2026-05-04 10:20 |
|---|---|
| Airport | Dublin Airport (EIDW) |
Arrival
| Time | 2026-05-04 11:12 |
|---|---|
| Airport | London Heathrow Airport (EGLL) |
| Time | Latitude | Longitude | Altitude | Speed | Heading |
|---|---|---|---|---|---|
| 2026-05-04 09:51 | 53.42587 | -6.24504 | 212 ft | 0 kts | 306° |
| 2026-05-04 09:58 | 53.42586 | -6.24504 | 211 ft | 0 kts | 306° |
| 2026-05-04 10:06 | 53.42585 | -6.24501 | 211 ft | 1 kts | 306° |
| 2026-05-04 10:08 | 53.42523 | -6.24407 | 212 ft | 3 kts | 219° |
| 2026-05-04 10:08 | 53.42536 | -6.24388 | 211 ft | 1 kts | 227° |
| 2026-05-04 10:08 | 53.42534 | -6.24391 | 211 ft | 2 kts | 228° |
| 2026-05-04 10:08 | 53.42521 | -6.24411 | 215 ft | 2 kts | 215° |
| 2026-05-04 10:09 | 53.42517 | -6.24415 | 215 ft | 0 kts | 213° |
| 2026-05-04 10:12 | 53.42507 | -6.24427 | 223 ft | 4 kts | 213° |
| 2026-05-04 10:13 | 53.42465 | -6.24498 | 217 ft | 12 kts | 236° |
| 2026-05-04 10:13 | 53.42430 | -6.24606 | 214 ft | 9 kts | 242° |
| 2026-05-04 10:13 | 53.42402 | -6.24693 | 215 ft | 7 kts | 238° |
| 2026-05-04 10:13 | 53.42375 | -6.24749 | 216 ft | 5 kts | 225° |
| 2026-05-04 10:14 | 53.42365 | -6.24765 | 211 ft | 1 kts | 226° |
| 2026-05-04 10:14 | 53.42356 | -6.24781 | 211 ft | 6 kts | 229° |
| 2026-05-04 10:16 | 53.42628 | -6.25542 | 211 ft | 23 kts | 227° |
| 2026-05-04 10:16 | 53.42487 | -6.25780 | 211 ft | 32 kts | 223° |
| 2026-05-04 10:16 | 53.42341 | -6.26022 | 211 ft | 27 kts | 226° |
| 2026-05-04 10:16 | 53.42267 | -6.26305 | 211 ft | 28 kts | 272° |
| 2026-05-04 10:17 | 53.42285 | -6.26639 | 211 ft | 29 kts | 275° |
| 2026-05-04 10:17 | 53.42305 | -6.26978 | 211 ft | 31 kts | 275° |
| 2026-05-04 10:19 | 53.42295 | -6.28315 | 211 ft | 4 kts | 155° |
| 2026-05-04 10:19 | 53.42280 | -6.28297 | 218 ft | 8 kts | 142° |
| 2026-05-04 10:19 | 53.42216 | -6.28246 | 222 ft | 8 kts | 163° |
| 2026-05-04 10:19 | 53.42194 | -6.28108 | 212 ft | 30 kts | 94° |
| 2026-05-04 10:20 | 53.42150 | -6.27306 | 210 ft | 107 kts | 95° |
| 2026-05-04 10:20 | 53.42062 | -6.25715 | 319 ft | 155 kts | 93° |
| 2026-05-04 10:20 | 53.41949 | -6.23918 | 1073 ft | 156 kts | 92° |
| 2026-05-04 10:20 | 53.41841 | -6.22099 | 1866 ft | 158 kts | 92° |
| 2026-05-04 10:21 | 53.41739 | -6.20195 | 2434 ft | 172 kts | 91° |
| 2026-05-04 10:21 | 53.41630 | -6.18070 | 2801 ft | 194 kts | 91° |
| 2026-05-04 10:21 | 53.41507 | -6.15664 | 3162 ft | 219 kts | 91° |
| 2026-05-04 10:21 | 53.41501 | -6.12980 | 3636 ft | 243 kts | 85° |
| 2026-05-04 10:22 | 53.41696 | -6.07122 | 5312 ft | 259 kts | 84° |
| 2026-05-04 10:22 | 53.41811 | -6.04084 | 6241 ft | 264 kts | 85° |
| 2026-05-04 10:22 | 53.41908 | -6.00972 | 7117 ft | 270 kts | 85° |
| 2026-05-04 10:23 | 53.41994 | -5.97801 | 8026 ft | 275 kts | 85° |
| 2026-05-04 10:23 | 53.42075 | -5.94565 | 8949 ft | 280 kts | 86° |
| 2026-05-04 10:25 | 53.42685 | -5.68658 | 13839 ft | 343 kts | 86° |
| 2026-05-04 10:25 | 53.42776 | -5.64639 | 14546 ft | 346 kts | 86° |
| 2026-05-04 10:25 | 53.42865 | -5.60587 | 15272 ft | 349 kts | 86° |
| 2026-05-04 10:25 | 53.42951 | -5.56501 | 15978 ft | 352 kts | 86° |
| 2026-05-04 10:26 | 53.43034 | -5.52382 | 16696 ft | 355 kts | 86° |
| 2026-05-04 10:26 | 53.43117 | -5.48244 | 17429 ft | 357 kts | 86° |
| 2026-05-04 10:26 | 53.43204 | -5.44061 | 18110 ft | 360 kts | 86° |
| 2026-05-04 10:26 | 53.43293 | -5.39848 | 18743 ft | 363 kts | 86° |
| 2026-05-04 10:27 | 53.43381 | -5.35607 | 19364 ft | 365 kts | 86° |
| 2026-05-04 10:27 | 53.43464 | -5.31332 | 19960 ft | 368 kts | 86° |
| 2026-05-04 10:27 | 53.43544 | -5.27022 | 20582 ft | 371 kts | 86° |
| 2026-05-04 10:27 | 53.43623 | -5.22689 | 21196 ft | 373 kts | 86° |
| 2026-05-04 10:28 | 53.43703 | -5.18326 | 21812 ft | 376 kts | 86° |
| 2026-05-04 10:28 | 53.43732 | -5.13926 | 22422 ft | 379 kts | 89° |
| 2026-05-04 10:28 | 53.43647 | -5.09494 | 22947 ft | 382 kts | 91° |
| 2026-05-04 10:28 | 53.43495 | -5.05042 | 23081 ft | 382 kts | 91° |
| 2026-05-04 10:29 | 53.43313 | -5.00605 | 23098 ft | 382 kts | 92° |
| 2026-05-04 10:29 | 53.43128 | -4.96225 | 23098 ft | 381 kts | 92° |
| 2026-05-04 10:29 | 53.42949 | -4.91795 | 23092 ft | 381 kts | 91° |
| 2026-05-04 10:29 | 53.42786 | -4.87357 | 23092 ft | 381 kts | 91° |
| 2026-05-04 10:30 | 53.42634 | -4.82923 | 23093 ft | 381 kts | 91° |
| 2026-05-04 10:30 | 53.42492 | -4.78488 | 23095 ft | 381 kts | 91° |
| 2026-05-04 10:30 | 53.42350 | -4.73997 | 23092 ft | 381 kts | 91° |
| 2026-05-04 10:30 | 53.42207 | -4.69559 | 23092 ft | 381 kts | 91° |
| 2026-05-04 10:31 | 53.42062 | -4.65130 | 23087 ft | 381 kts | 91° |
| 2026-05-04 10:31 | 53.41913 | -4.60755 | 23088 ft | 381 kts | 91° |
| 2026-05-04 10:32 | 53.40962 | -4.34465 | 26711 ft | 377 kts | 90° |
| 2026-05-04 10:33 | 53.40798 | -4.30065 | 27205 ft | 379 kts | 90° |
| 2026-05-04 10:33 | 53.40631 | -4.25654 | 27686 ft | 381 kts | 90° |
| 2026-05-04 10:33 | 53.40462 | -4.21218 | 28157 ft | 382 kts | 90° |
| 2026-05-04 10:33 | 53.40289 | -4.16765 | 28613 ft | 384 kts | 90° |
| 2026-05-04 10:34 | 53.40113 | -4.12290 | 29051 ft | 386 kts | 90° |
| 2026-05-04 10:34 | 53.39935 | -4.07794 | 29492 ft | 388 kts | 90° |
| 2026-05-04 10:34 | 53.39755 | -4.03276 | 29916 ft | 390 kts | 90° |
| 2026-05-04 10:34 | 53.39575 | -3.98735 | 30301 ft | 391 kts | 90° |
| 2026-05-04 10:35 | 53.39396 | -3.94175 | 30644 ft | 393 kts | 90° |
| 2026-05-04 10:35 | 53.39215 | -3.89599 | 30987 ft | 395 kts | 90° |
| 2026-05-04 10:35 | 53.39030 | -3.84996 | 31325 ft | 396 kts | 90° |
| 2026-05-04 10:35 | 53.38842 | -3.80381 | 31654 ft | 398 kts | 90° |
| 2026-05-04 10:36 | 53.38648 | -3.75760 | 32078 ft | 397 kts | 90° |
| 2026-05-04 10:36 | 53.38452 | -3.71156 | 32545 ft | 395 kts | 90° |
| 2026-05-04 10:36 | 53.38180 | -3.66576 | 32972 ft | 397 kts | 96° |
| 2026-05-04 10:36 | 53.37509 | -3.62081 | 33078 ft | 400 kts | 105° |
| 2026-05-04 10:37 | 53.35334 | -3.53449 | 33083 ft | 403 kts | 109° |
| 2026-05-04 10:37 | 53.33109 | -3.44781 | 33080 ft | 413 kts | 109° |
| 2026-05-04 10:39 | 53.25410 | -3.14976 | 33081 ft | 421 kts | 109° |
| 2026-05-04 10:40 | 53.23066 | -3.06023 | 33090 ft | 421 kts | 109° |
| 2026-05-04 10:40 | 53.20720 | -2.97060 | 33080 ft | 422 kts | 110° |
| 2026-05-04 10:41 | 53.18361 | -2.88077 | 33073 ft | 423 kts | 110° |
| 2026-05-04 10:41 | 53.15985 | -2.79082 | 33055 ft | 424 kts | 110° |
| 2026-05-04 10:42 | 53.13599 | -2.70090 | 33059 ft | 425 kts | 111° |
| 2026-05-04 10:42 | 53.11204 | -2.61099 | 33059 ft | 425 kts | 111° |
| 2026-05-04 10:43 | 53.08801 | -2.52120 | 33066 ft | 425 kts | 111° |
| 2026-05-04 10:44 | 52.97195 | -2.24319 | 33055 ft | 439 kts | 146° |
| 2026-05-04 10:45 | 52.94610 | -2.21625 | 33055 ft | 439 kts | 145° |
| 2026-05-04 10:45 | 52.89516 | -2.16295 | 33067 ft | 419 kts | 145° |
| 2026-05-04 10:45 | 52.87103 | -2.13772 | 33071 ft | 402 kts | 145° |
| 2026-05-04 10:46 | 52.84782 | -2.11350 | 33048 ft | 388 kts | 145° |
| 2026-05-04 10:46 | 52.82527 | -2.08997 | 32800 ft | 379 kts | 145° |
| 2026-05-04 10:46 | 52.80311 | -2.06689 | 32446 ft | 375 kts | 144° |
| 2026-05-04 10:46 | 52.78117 | -2.04405 | 32049 ft | 371 kts | 144° |
| 2026-05-04 10:47 | 52.75939 | -2.02140 | 31643 ft | 369 kts | 144° |
| 2026-05-04 10:47 | 52.73802 | -1.99922 | 31246 ft | 366 kts | 147° |
| 2026-05-04 10:47 | 52.71652 | -1.97697 | 30867 ft | 363 kts | 147° |
| 2026-05-04 10:47 | 52.69499 | -1.95466 | 30495 ft | 359 kts | 146° |
| 2026-05-04 10:49 | 52.54138 | -1.79643 | 26071 ft | 371 kts | 149° |
| 2026-05-04 10:49 | 52.51996 | -1.77450 | 25731 ft | 369 kts | 149° |
| 2026-05-04 10:50 | 52.49813 | -1.75214 | 25472 ft | 370 kts | 149° |
| 2026-05-04 10:51 | 52.34756 | -1.59868 | 22857 ft | 356 kts | 150° |
| 2026-05-04 10:52 | 52.32662 | -1.57746 | 22394 ft | 353 kts | 150° |
| 2026-05-04 10:52 | 52.30584 | -1.55647 | 21937 ft | 350 kts | 150° |
| 2026-05-04 10:52 | 52.28521 | -1.53561 | 21489 ft | 348 kts | 150° |
| 2026-05-04 10:54 | 52.15059 | -1.37388 | 19764 ft | 343 kts | 142° |
| 2026-05-04 10:54 | 52.13248 | -1.34877 | 19349 ft | 341 kts | 142° |
| 2026-05-04 10:56 | 52.00927 | -1.17773 | 16526 ft | 325 kts | 141° |
| 2026-05-04 10:56 | 51.99213 | -1.15405 | 16142 ft | 323 kts | 141° |
| 2026-05-04 10:56 | 51.97510 | -1.13056 | 15673 ft | 319 kts | 141° |
| 2026-05-04 10:57 | 51.95826 | -1.10735 | 14984 ft | 317 kts | 141° |
| 2026-05-04 10:57 | 51.94154 | -1.08427 | 14322 ft | 314 kts | 141° |
| 2026-05-04 10:57 | 51.92520 | -1.06172 | 13680 ft | 312 kts | 141° |
| 2026-05-04 10:57 | 51.90880 | -1.03909 | 13050 ft | 306 kts | 141° |
| 2026-05-04 10:58 | 51.89290 | -1.01721 | 12817 ft | 297 kts | 141° |
| 2026-05-04 10:58 | 51.87723 | -0.99571 | 12457 ft | 295 kts | 141° |
| 2026-05-04 10:58 | 51.86162 | -0.97419 | 12110 ft | 293 kts | 138° |
| 2026-05-04 10:58 | 51.84865 | -0.94827 | 11717 ft | 295 kts | 121° |
| 2026-05-04 10:59 | 51.83955 | -0.91897 | 11326 ft | 294 kts | 117° |
| 2026-05-04 10:59 | 51.83044 | -0.88891 | 10960 ft | 293 kts | 118° |
| 2026-05-04 10:59 | 51.82159 | -0.85984 | 10608 ft | 291 kts | 118° |
| 2026-05-04 10:59 | 51.81266 | -0.83059 | 10259 ft | 290 kts | 118° |
| 2026-05-04 11:00 | 51.80374 | -0.80153 | 9898 ft | 288 kts | 118° |
| 2026-05-04 11:01 | 51.74230 | -0.60210 | 7632 ft | 280 kts | 118° |
| 2026-05-04 11:02 | 51.73363 | -0.57410 | 7299 ft | 278 kts | 117° |
| 2026-05-04 11:02 | 51.72462 | -0.54672 | 7045 ft | 274 kts | 125° |
| 2026-05-04 11:05 | 51.56982 | -0.20575 | 5393 ft | 257 kts | 127° |
| 2026-05-04 11:06 | 51.55899 | -0.18215 | 4803 ft | 264 kts | 127° |
| 2026-05-04 11:06 | 51.54822 | -0.15862 | 4563 ft | 256 kts | 127° |
| 2026-05-04 11:06 | 51.53760 | -0.13680 | 4396 ft | 238 kts | 136° |
| 2026-05-04 11:06 | 51.52335 | -0.12597 | 4047 ft | 227 kts | 177° |
| 2026-05-04 11:08 | 51.47801 | -0.25058 | 2359 ft | 192 kts | 271° |
| 2026-05-04 11:10 | 51.47772 | -0.38558 | 707 ft | 141 kts | 272° |
| 2026-05-04 11:12 | 51.47608 | -0.45441 | 90 ft | 12 kts | 135° |
| 2026-05-04 11:12 | 51.47597 | -0.45327 | 86 ft | 9 kts | 90° |
| 2026-05-04 11:12 | 51.47597 | -0.45237 | 86 ft | 7 kts | 89° |
| 2026-05-04 11:12 | 51.47599 | -0.45172 | 86 ft | 4 kts | 88° |
| 2026-05-04 11:13 | 51.47599 | -0.45160 | 86 ft | 2 kts | 88° |
| 2026-05-04 11:13 | 51.47599 | -0.45044 | 86 ft | 17 kts | 91° |
| 2026-05-04 11:13 | 51.47598 | -0.44847 | 86 ft | 16 kts | 90° |
| 2026-05-04 11:13 | 51.47596 | -0.44701 | 86 ft | 12 kts | 101° |
| 2026-05-04 11:14 | 51.47581 | -0.44670 | 89 ft | 11 kts | 142° |
| 2026-05-04 11:16 | 51.46768 | -0.44571 | 89 ft | 11 kts | 215° |
| 2026-05-04 11:16 | 51.46751 | -0.44722 | 86 ft | 18 kts | 270° |
| 2026-05-04 11:16 | 51.46752 | -0.44882 | 86 ft | 12 kts | 270° |
| 2026-05-04 11:17 | 51.46754 | -0.44973 | 86 ft | 3 kts | 283° |
| 2026-05-04 11:17 | 51.46769 | -0.44979 | 91 ft | 3 kts | 356° |
| 2026-05-04 11:19 | 51.46830 | -0.44979 | 86 ft | 0 kts | 359° |